Time;durP1;ratioP1;P1;durP2;ratioP2;P2;SDS_P1;SDS_P2;PMS_P1;PMS_P2;Temp;Humidity;BMP_temperature;BMP_pressure;BME280_temperature;BME280_humidity;BME280_pressure;Samples;Min_cycle;Max_cycle;Signal;HPM_P1;HPM_P2
2022/04/07 00:01:04;;;;;;;;;1.20;1.20;24.70;99.90;;;;;;5073743;28;8853;-51
2022/04/07 00:03:36;;;;;;;;;1.00;1.00;24.70;99.90;;;;;;5081565;28;8824;-51
2022/04/07 00:06:09;;;;;;;;;1.75;1.75;24.70;99.90;;;;;;5076455;28;10004;-50
2022/04/07 00:08:41;;;;;;;;;1.00;1.00;24.80;99.90;;;;;;5074322;28;8862;-51
2022/04/07 00:11:12;;;;;;;;;1.50;1.50;24.70;99.90;;;;;;5075636;28;8839;-52
2022/04/07 00:13:43;;;;;;;;;2.75;2.75;24.70;99.90;;;;;;5086107;28;8999;-52
2022/04/07 00:16:13;;;;;;;;;3.00;3.00;24.70;99.90;;;;;;5073765;28;8862;-51
2022/04/07 00:18:43;;;;;;;;;2.00;2.00;24.80;99.90;;;;;;5069665;28;8859;-51
2022/04/07 00:21:24;;;;;;;;;4.25;2.00;24.80;99.90;;;;;;5075431;28;8837;-53
2022/04/07 00:23:55;;;;;;;;;3.00;3.00;24.70;99.90;;;;;;5078875;28;9563;-52
2022/04/07 00:26:25;;;;;;;;;3.00;3.00;24.70;99.90;;;;;;5070949;28;9647;-49
2022/04/07 00:28:56;;;;;;;;;3.00;3.00;24.70;99.90;;;;;;5071448;28;8879;-51
2022/04/07 00:31:27;;;;;;;;;2.00;2.00;24.70;99.90;;;;;;5088197;28;8879;-49
2022/04/07 00:33:58;;;;;;;;;3.25;3.25;24.70;99.90;;;;;;5077998;28;9299;-51
2022/04/07 00:36:28;;;;;;;;;5.00;3.00;24.70;99.90;;;;;;5071837;27;8855;-51
2022/04/07 00:39:00;;;;;;;;;1.75;1.75;24.70;99.90;;;;;;5080572;28;8859;-50
2022/04/07 00:41:31;;;;;;;;;2.00;2.00;24.70;99.90;;;;;;5083273;28;8844;-52
2022/04/07 00:44:02;;;;;;;;;1.00;1.00;24.70;99.90;;;;;;5083057;28;8841;-52
2022/04/07 00:46:36;;;;;;;;;3.00;3.00;24.70;99.90;;;;;;5080327;28;8815;-48
2022/04/07 00:49:08;;;;;;;;;3.00;3.00;24.60;99.90;;;;;;5088702;28;8883;-55
2022/04/07 00:51:40;;;;;;;;;2.00;2.00;24.60;99.90;;;;;;5085833;28;8899;-51
2022/04/07 00:54:13;;;;;;;;;3.00;3.00;24.60;99.90;;;;;;5071483;28;8869;-51
2022/04/07 00:56:43;;;;;;;;;2.00;2.00;24.60;99.90;;;;;;5084519;28;8823;-50
2022/04/07 00:59:17;;;;;;;;;2.00;2.00;24.60;99.90;;;;;;5072696;28;8836;-47
2022/04/07 01:01:49;;;;;;;;;3.50;2.25;24.50;99.90;;;;;;5081887;28;8837;-49
2022/04/07 01:04:21;;;;;;;;;3.25;3.25;24.50;99.90;;;;;;5081553;28;8843;-53
2022/04/07 01:06:52;;;;;;;;;4.00;3.50;24.50;99.90;;;;;;5079671;28;8859;-52
2022/04/07 01:09:23;;;;;;;;;4.75;3.50;24.50;99.90;;;;;;5076270;28;9585;-48
2022/04/07 01:11:55;;;;;;;;;3.00;2.50;24.50;99.90;;;;;;5076173;28;8836;-48
2022/04/07 01:14:26;;;;;;;;;3.00;3.00;24.50;99.90;;;;;;5087701;28;8835;-51
2022/04/07 01:16:58;;;;;;;;;3.25;3.25;24.50;99.90;;;;;;5078056;28;8861;-52
2022/04/07 01:19:31;;;;;;;;;2.75;2.75;24.50;99.90;;;;;;5073299;28;8861;-50
2022/04/07 01:22:01;;;;;;;;;3.25;3.25;24.40;99.90;;;;;;5078346;28;8881;-50
2022/04/07 01:24:32;;;;;;;;;3.00;3.00;24.40;99.90;;;;;;5090756;28;8880;-51
2022/04/07 01:27:04;;;;;;;;;3.25;2.75;24.30;99.90;;;;;;5072431;28;8826;-47
2022/04/07 01:29:34;;;;;;;;;2.00;2.00;24.30;99.90;;;;;;5078642;28;9564;-51
2022/04/07 01:32:15;;;;;;;;;0.50;0.50;24.30;99.90;;;;;;5089763;28;9603;-48
2022/04/07 01:34:46;;;;;;;;;1.50;1.50;24.30;99.90;;;;;;5084175;28;8864;-52
2022/04/07 01:37:18;;;;;;;;;2.25;2.25;24.30;99.90;;;;;;5077203;28;8837;-50
2022/04/07 01:39:52;;;;;;;;;2.75;2.75;24.30;99.90;;;;;;5072450;28;8844;-50
2022/04/07 01:42:22;;;;;;;;;2.25;2.25;24.20;99.90;;;;;;5068159;28;8811;-53
2022/04/07 01:44:57;;;;;;;;;1.25;1.25;24.20;99.90;;;;;;5074231;28;8889;-52
2022/04/07 01:47:29;;;;;;;;;2.00;2.00;24.10;99.90;;;;;;5071690;28;8881;-51
2022/04/07 01:50:05;;;;;;;;;4.25;3.00;24.10;99.90;;;;;;5070074;28;8907;-51
2022/04/07 01:52:36;;;;;;;;;3.00;3.00;24.00;99.90;;;;;;5066680;28;8989;-52
2022/04/07 01:55:08;;;;;;;;;2.00;2.00;24.00;99.90;;;;;;5070187;28;8902;-54
2022/04/07 01:57:39;;;;;;;;;4.50;2.75;24.00;99.90;;;;;;5082516;28;8822;-49
2022/04/07 02:00:11;;;;;;;;;2.00;2.00;24.00;99.90;;;;;;5076503;28;8876;-49
2022/04/07 02:02:42;;;;;;;;;2.00;2.00;23.90;99.90;;;;;;5090299;28;8839;-48
2022/04/07 02:05:15;;;;;;;;;2.00;2.00;23.90;99.90;;;;;;5070193;28;8836;-55
2022/04/07 02:07:48;;;;;;;;;3.25;3.25;23.90;99.90;;;;;;5071681;27;8871;-55
2022/04/07 02:10:21;;;;;;;;;2.25;2.25;23.90;99.90;;;;;;5075520;28;8888;-53
2022/04/07 02:12:51;;;;;;;;;2.75;2.00;23.80;99.90;;;;;;5082625;28;8870;-51
2022/04/07 02:15:26;;;;;;;;;4.75;3.25;23.80;99.90;;;;;;5081684;28;9024;-51
2022/04/07 02:17:57;;;;;;;;;2.25;2.25;23.70;99.90;;;;;;5080284;28;8826;-53
2022/04/07 02:20:27;;;;;;;;;1.50;1.50;23.70;99.90;;;;;;5073020;28;8843;-50
2022/04/07 02:22:59;;;;;;;;;3.50;3.50;23.70;99.90;;;;;;5082002;28;9629;-51
2022/04/07 02:25:30;;;;;;;;;1.25;1.25;23.70;99.90;;;;;;5080567;28;8882;-50
2022/04/07 02:28:00;;;;;;;;;1.00;1.00;23.60;99.90;;;;;;5075334;28;9385;-52
2022/04/07 02:30:31;;;;;;;;;5.00;4.00;23.60;99.90;;;;;;5075236;28;9635;-52
2022/04/07 02:33:01;;;;;;;;;1.00;1.00;23.50;99.90;;;;;;5081695;28;8862;-53
2022/04/07 02:35:32;;;;;;;;;3.00;3.00;23.50;99.90;;;;;;5079232;28;8994;-51
2022/04/07 02:38:03;;;;;;;;;2.50;2.00;23.50;99.90;;;;;;5075497;28;8843;-53
2022/04/07 02:40:33;;;;;;;;;4.25;4.00;23.40;99.90;;;;;;5070170;28;9547;-53
2022/04/07 02:43:02;;;;;;;;;2.25;2.25;23.40;99.90;;;;;;5074469;28;9340;-52
2022/04/07 02:45:36;;;;;;;;;2.00;2.00;23.40;99.90;;;;;;5070953;28;8865;-53
2022/04/07 02:48:06;;;;;;;;;2.00;2.00;23.30;99.90;;;;;;5072222;28;8841;-49
2022/04/07 02:50:37;;;;;;;;;2.25;2.25;23.30;99.90;;;;;;5079383;27;8846;-55
2022/04/07 02:53:09;;;;;;;;;1.00;1.00;23.30;99.90;;;;;;5065805;28;8874;-59
2022/04/07 02:55:39;;;;;;;;;2.00;2.00;23.30;99.90;;;;;;5077329;28;8831;-52
2022/04/07 02:58:10;;;;;;;;;1.00;1.00;23.20;99.90;;;;;;5074815;28;8842;-52
2022/04/07 03:00:41;;;;;;;;;1.25;1.25;23.10;99.90;;;;;;5072546;28;8873;-57
2022/04/07 03:03:12;;;;;;;;;2.25;2.25;23.10;99.90;;;;;;5073995;28;8932;-56
2022/04/07 03:05:44;;;;;;;;;4.00;3.00;23.00;99.90;;;;;;5083387;28;8866;-56
2022/04/07 03:08:15;;;;;;;;;1.75;1.75;23.00;99.90;;;;;;5068951;28;8864;-51
2022/04/07 03:10:45;;;;;;;;;2.00;2.00;23.00;99.90;;;;;;5071587;28;8857;-51
2022/04/07 03:13:16;;;;;;;;;3.00;3.00;22.90;99.90;;;;;;5081246;28;8851;-52
2022/04/07 03:15:47;;;;;;;;;3.50;2.75;22.90;99.90;;;;;;5068114;28;8867;-50
2022/04/07 03:18:17;;;;;;;;;3.00;3.00;22.90;99.90;;;;;;5075665;28;8849;-49
2022/04/07 03:20:47;;;;;;;;;3.25;2.00;22.80;99.90;;;;;;5069207;28;9003;-51
2022/04/07 03:23:18;;;;;;;;;2.00;2.00;22.80;99.90;;;;;;5076392;28;8858;-49
2022/04/07 03:25:48;;;;;;;;;1.75;1.75;22.70;99.90;;;;;;5068963;28;8893;-49
2022/04/07 03:28:19;;;;;;;;;1.00;1.00;22.70;99.90;;;;;;5072158;28;8818;-47
2022/04/07 03:30:50;;;;;;;;;2.25;2.25;22.70;99.90;;;;;;5070850;28;8818;-48
2022/04/07 03:33:22;;;;;;;;;1.25;1.25;22.70;99.90;;;;;;5079794;28;9244;-51
2022/04/07 03:35:53;;;;;;;;;2.00;2.00;22.60;99.90;;;;;;5073284;28;8945;-53
2022/04/07 03:38:25;;;;;;;;;2.75;2.75;22.60;99.90;;;;;;5084053;28;8855;-49
2022/04/07 03:40:55;;;;;;;;;2.00;2.00;22.50;99.90;;;;;;5065264;28;10452;-53
2022/04/07 03:43:26;;;;;;;;;2.75;2.75;22.50;99.90;;;;;;5070875;28;8870;-51
2022/04/07 03:45:57;;;;;;;;;3.50;3.50;22.40;99.90;;;;;;5070751;28;8901;-50
2022/04/07 03:48:28;;;;;;;;;2.00;2.00;22.40;99.90;;;;;;5083595;28;8859;-53
2022/04/07 03:50:59;;;;;;;;;2.00;2.00;22.40;99.90;;;;;;5078090;28;9000;-50
2022/04/07 03:53:30;;;;;;;;;2.00;2.00;22.30;99.90;;;;;;5090823;28;8839;-50
2022/04/07 03:56:03;;;;;;;;;3.00;2.25;22.20;99.90;;;;;;5083691;28;8855;-52
2022/04/07 03:58:34;;;;;;;;;2.00;2.00;22.20;99.90;;;;;;5080780;28;8843;-52
2022/04/07 04:01:05;;;;;;;;;3.00;3.00;22.20;99.90;;;;;;5072691;28;8926;-51
2022/04/07 04:03:37;;;;;;;;;2.00;2.00;22.10;99.90;;;;;;5080988;28;8833;-55
2022/04/07 04:06:09;;;;;;;;;2.00;2.00;22.10;99.90;;;;;;5084012;28;8917;-57
2022/04/07 04:08:40;;;;;;;;;3.00;3.00;22.00;99.90;;;;;;5073904;28;8923;-53
2022/04/07 04:11:14;;;;;;;;;5.00;3.33;22.00;99.90;;;;;;5079348;28;9057;-51
2022/04/07 04:13:46;;;;;;;;;4.00;4.00;21.90;99.90;;;;;;5073188;28;8917;-53
2022/04/07 04:16:18;;;;;;;;;4.33;4.33;21.90;99.90;;;;;;5085033;28;9213;-53
2022/04/07 04:18:48;;;;;;;;;3.67;3.33;21.80;99.90;;;;;;5072332;28;9075;-49
2022/04/07 04:21:19;;;;;;;;;5.33;4.33;21.80;99.90;;;;;;5085627;28;9725;-51
2022/04/07 04:23:49;;;;;;;;;3.00;3.00;21.80;99.90;;;;;;5076504;28;9306;-52
2022/04/07 04:26:20;;;;;;;;;2.67;2.67;21.60;99.90;;;;;;5089450;28;9149;-49
2022/04/07 04:28:50;;;;;;;;;4.00;4.00;21.70;99.90;;;;;;5086128;28;9082;-50
2022/04/07 04:31:24;;;;;;;;;2.00;2.00;21.60;99.90;;;;;;5075443;28;9191;-53
2022/04/07 04:33:55;;;;;;;;;2.33;2.33;21.60;99.90;;;;;;5072891;28;9811;-51
2022/04/07 04:36:28;;;;;;;;;2.67;2.67;21.60;99.90;;;;;;5086726;28;9209;-50
2022/04/07 04:38:59;;;;;;;;;2.67;2.67;21.50;99.90;;;;;;5080247;28;9165;-52
2022/04/07 04:41:31;;;;;;;;;2.67;2.67;21.50;99.90;;;;;;5078481;28;9157;-53
2022/04/07 04:44:02;;;;;;;;;2.33;2.33;21.40;99.90;;;;;;5076520;28;9210;-50
2022/04/07 04:46:33;;;;;;;;;3.67;3.67;21.40;99.90;;;;;;5084092;28;9117;-52
2022/04/07 04:49:05;;;;;;;;;3.33;3.33;21.40;99.90;;;;;;5077077;28;9162;-54
2022/04/07 04:51:35;;;;;;;;;3.00;3.00;21.30;99.90;;;;;;5073096;28;9831;-56
2022/04/07 04:54:06;;;;;;;;;3.33;3.33;21.30;99.90;;;;;;5084404;28;9128;-51
2022/04/07 04:56:36;;;;;;;;;4.00;4.00;21.20;99.90;;;;;;5086089;28;9216;-49
2022/04/07 04:59:06;;;;;;;;;4.00;4.00;21.20;99.90;;;;;;5070221;28;9336;-50
2022/04/07 05:01:36;;;;;;;;;5.00;4.67;21.10;99.90;;;;;;5074021;28;9319;-52
2022/04/07 05:04:07;;;;;;;;;4.33;4.33;21.20;99.90;;;;;;5079570;28;9559;-55
2022/04/07 05:06:39;;;;;;;;;6.00;3.33;21.10;99.90;;;;;;5072321;28;9432;-55
2022/04/07 05:09:09;;;;;;;;;6.67;6.67;21.10;99.90;;;;;;5070014;28;9377;-52
2022/04/07 05:11:41;;;;;;;;;2.00;2.00;21.00;99.90;;;;;;5071858;27;10280;-50
2022/04/07 05:14:11;;;;;;;;;1.00;1.00;21.00;99.90;;;;;;5084136;27;9448;-49
2022/04/07 05:16:42;;;;;;;;;4.00;4.00;20.90;99.90;;;;;;5080977;28;9460;-49
2022/04/07 05:19:14;;;;;;;;;2.00;2.00;20.90;99.90;;;;;;5068536;28;9430;-52
2022/04/07 05:21:49;;;;;;;;;3.33;3.33;20.90;99.90;;;;;;5074974;28;9391;-53
2022/04/07 05:24:20;;;;;;;;;4.33;4.33;20.80;99.90;;;;;;5076046;28;9386;-48
2022/04/07 05:26:50;;;;;;;;;4.00;4.00;20.80;99.90;;;;;;5076537;28;9481;-49
2022/04/07 05:29:23;;;;;;;;;4.00;4.00;20.80;99.90;;;;;;5075070;28;9487;-52
2022/04/07 05:31:53;;;;;;;;;6.00;4.00;20.70;99.90;;;;;;5075641;28;9566;-51
2022/04/07 05:34:29;;;;;;;;;3.33;3.33;20.70;99.90;;;;;;5079485;28;10475;-55
2022/04/07 05:37:00;;;;;;;;;4.33;4.33;20.60;99.90;;;;;;5080826;28;9385;-54
2022/04/07 05:39:31;;;;;;;;;4.00;4.00;20.60;99.90;;;;;;5071617;28;9437;-49
2022/04/07 05:42:01;;;;;;;;;4.00;4.00;20.60;99.90;;;;;;5081546;28;9515;-50
2022/04/07 05:44:33;;;;;;;;;5.75;4.00;20.50;99.90;;;;;;5079142;27;9603;-51
2022/04/07 05:47:04;;;;;;;;;5.75;4.75;20.50;99.90;;;;;;5074086;28;9538;-52
2022/04/07 05:49:37;;;;;;;;;4.00;4.00;20.50;99.90;;;;;;5079855;28;9517;-54
2022/04/07 05:52:09;;;;;;;;;3.25;3.25;20.40;99.90;;;;;;5072055;28;9609;-53
2022/04/07 05:54:40;;;;;;;;;3.00;3.00;20.40;99.90;;;;;;5070470;27;9606;-50
2022/04/07 05:57:12;;;;;;;;;3.75;2.75;20.30;99.90;;;;;;5079673;28;9598;-52
2022/04/07 05:59:43;;;;;;;;;4.00;4.00;20.30;99.90;;;;;;5068217;28;9753;-54
2022/04/07 06:02:14;;;;;;;;;3.00;3.00;20.30;99.90;;;;;;5080324;28;9603;-54
2022/04/07 06:04:44;;;;;;;;;2.25;2.25;20.20;99.90;;;;;;5078941;28;9713;-51
2022/04/07 06:07:15;;;;;;;;;4.50;4.50;20.20;99.90;;;;;;5073358;28;9858;-53
2022/04/07 06:09:46;;;;;;;;;3.00;3.00;20.10;99.90;;;;;;5073963;28;9744;-52
2022/04/07 06:12:17;;;;;;;;;3.00;3.00;20.10;99.90;;;;;;5070559;28;9458;-50
2022/04/07 06:14:47;;;;;;;;;3.00;3.00;20.00;99.90;;;;;;5074947;28;9602;-52
2022/04/07 06:17:38;;;;;;;;;3.75;3.75;20.10;99.90;;;;;;5076772;28;9634;-53
2022/04/07 06:20:11;;;;;;;;;4.25;4.25;20.00;99.90;;;;;;5076027;28;9608;-51
2022/04/07 06:22:44;;;;;;;;;6.00;5.00;20.00;99.90;;;;;;5074823;28;9927;-49
2022/04/07 06:25:15;;;;;;;;;4.00;4.00;20.00;99.90;;;;;;5070483;28;9879;-49
2022/04/07 06:27:47;;;;;;;;;4.00;4.00;19.90;99.90;;;;;;5076378;28;9834;-52
2022/04/07 06:30:19;;;;;;;;;3.25;3.25;19.90;99.90;;;;;;5072434;28;9834;-50
2022/04/07 06:32:52;;;;;;;;;4.00;4.00;19.80;99.90;;;;;;5078663;28;9731;-51
2022/04/07 06:35:23;;;;;;;;;4.00;4.00;19.80;99.90;;;;;;5077852;28;9852;-51
2022/04/07 06:37:57;;;;;;;;;5.25;5.25;19.80;99.90;;;;;;5071758;28;10874;-51
2022/04/07 06:40:30;;;;;;;;;4.75;4.75;19.70;99.90;;;;;;5067367;28;9951;-50
2022/04/07 06:43:02;;;;;;;;;3.00;3.00;19.70;99.90;;;;;;5076028;28;9854;-50
2022/04/07 06:45:33;;;;;;;;;4.25;4.00;19.70;99.90;;;;;;5067973;28;9933;-52
2022/04/07 06:48:04;;;;;;;;;4.00;4.00;19.60;99.90;;;;;;5074821;28;9746;-52
2022/04/07 06:50:35;;;;;;;;;5.50;4.00;19.60;99.90;;;;;;5073164;28;10587;-50
2022/04/07 06:53:06;;;;;;;;;4.75;4.75;19.50;99.90;;;;;;5073895;28;10004;-52
2022/04/07 06:55:37;;;;;;;;;3.00;3.00;19.50;99.90;;;;;;5069507;28;10101;-47
2022/04/07 06:58:12;;;;;;;;;5.75;5.00;19.50;99.90;;;;;;5071431;28;10150;-52
2022/04/07 07:00:46;;;;;;;;;6.00;6.00;19.50;99.90;;;;;;5073221;28;11438;-52
2022/04/07 07:03:17;;;;;;;;;10.00;8.25;19.40;99.90;;;;;;5071418;28;10241;-53
2022/04/07 07:05:50;;;;;;;;;10.00;10.00;19.40;99.90;;;;;;5074522;28;10741;-50
2022/04/07 07:08:21;;;;;;;;;9.50;9.50;19.30;99.90;;;;;;5068529;28;10591;-54
2022/04/07 07:10:52;;;;;;;;;7.75;7.75;19.30;99.90;;;;;;5072252;28;10749;-53
2022/04/07 07:13:24;;;;;;;;;13.50;13.50;19.30;99.90;;;;;;5068835;28;11221;-52
2022/04/07 07:15:57;;;;;;;;;13.75;12.75;19.20;99.90;;;;;;5074687;28;10722;-49
2022/04/07 07:18:27;;;;;;;;;12.75;12.75;19.20;99.90;;;;;;5074777;28;10711;-52
2022/04/07 07:20:58;;;;;;;;;17.50;17.50;19.10;99.90;;;;;;5071896;28;11078;-49
2022/04/07 07:23:28;;;;;;;;;12.75;11.75;19.10;99.90;;;;;;5074001;28;11248;-53
2022/04/07 07:26:00;;;;;;;;;9.25;9.25;19.00;99.90;;;;;;5071971;28;11010;-54
2022/04/07 07:28:31;;;;;;;;;7.75;6.75;19.10;99.90;;;;;;5071915;28;10537;-51
2022/04/07 07:31:01;;;;;;;;;8.25;8.25;19.00;99.90;;;;;;5067465;28;10173;-52
2022/04/07 07:33:32;;;;;;;;;5.75;3.75;19.00;99.90;;;;;;5067372;28;10575;-50
2022/04/07 07:36:02;;;;;;;;;6.00;5.25;18.90;99.90;;;;;;5067553;28;10557;-48
2022/04/07 07:38:33;;;;;;;;;4.25;4.25;18.90;99.90;;;;;;5081313;28;10579;-50
2022/04/07 07:41:03;;;;;;;;;5.50;5.50;18.90;99.90;;;;;;5069051;28;10346;-52
2022/04/07 07:43:34;;;;;;;;;5.50;5.50;18.80;99.90;;;;;;5074677;28;10082;-51
2022/04/07 07:46:05;;;;;;;;;6.25;5.00;18.80;99.90;;;;;;4945712;28;3536223;-50
2022/04/07 07:48:36;;;;;;;;;7.50;6.00;18.80;99.90;;;;;;5076098;28;8857;-49
2022/04/07 07:51:06;;;;;;;;;6.75;6.75;18.70;99.90;;;;;;5076151;28;10007;-48
2022/04/07 07:53:36;;;;;;;;;4.75;4.75;18.70;99.90;;;;;;5075428;28;10250;-51
2022/04/07 07:56:08;;;;;;;;;4.25;3.00;18.70;99.90;;;;;;5077780;28;10071;-51
2022/04/07 07:58:38;;;;;;;;;7.50;7.50;18.70;99.90;;;;;;5073466;28;10225;-51
2022/04/07 08:01:09;;;;;;;;;4.00;4.00;18.60;99.90;;;;;;5071744;28;10301;-52
2022/04/07 08:03:39;;;;;;;;;7.25;7.25;18.60;99.90;;;;;;5073904;28;10136;-47
2022/04/07 08:06:10;;;;;;;;;6.00;6.00;18.50;99.90;;;;;;5075654;28;10202;-50
2022/04/07 08:08:40;;;;;;;;;4.75;3.25;18.50;99.90;;;;;;5077287;28;10187;-52
2022/04/07 08:11:18;;;;;;;;;7.50;7.50;18.50;99.90;;;;;;5079419;28;10154;-48
2022/04/07 08:13:48;;;;;;;;;6.50;6.50;18.50;99.90;;;;;;5070190;28;10325;-50
2022/04/07 08:16:19;;;;;;;;;5.75;5.75;18.40;99.90;;;;;;5075341;28;10226;-52
2022/04/07 08:18:49;;;;;;;;;10.25;7.00;18.40;99.90;;;;;;5076922;28;10299;-51
2022/04/07 08:21:20;;;;;;;;;5.50;5.00;18.40;99.90;;;;;;5072362;28;10483;-50
2022/04/07 08:23:51;;;;;;;;;5.00;5.00;18.30;99.90;;;;;;5065947;28;10259;-48
2022/04/07 08:26:22;;;;;;;;;5.25;5.25;18.30;99.90;;;;;;5077334;28;10339;-50
2022/04/07 08:28:52;;;;;;;;;6.00;5.00;18.20;99.90;;;;;;5068185;28;10557;-49
2022/04/07 08:31:23;;;;;;;;;5.00;5.00;18.30;99.90;;;;;;5072331;28;10340;-49
2022/04/07 08:33:53;;;;;;;;;4.50;4.50;18.20;99.90;;;;;;5075322;28;10452;-48
2022/04/07 08:36:23;;;;;;;;;3.00;3.00;18.20;99.90;;;;;;5083585;28;10334;-51
2022/04/07 08:38:53;;;;;;;;;5.75;5.50;18.20;99.90;;;;;;5076121;28;10199;-50
2022/04/07 08:41:31;;;;;;;;;4.00;4.00;18.10;99.90;;;;;;5074743;28;10539;-51
2022/04/07 08:44:01;;;;;;;;;2.50;2.50;18.10;99.90;;;;;;5072148;28;10419;-51
2022/04/07 08:46:35;;;;;;;;;7.50;4.75;18.10;99.90;;;;;;5069674;28;10379;-52
2022/04/07 08:49:06;;;;;;;;;7.25;6.25;18.00;99.90;;;;;;5072446;28;10635;-52
2022/04/07 08:51:38;;;;;;;;;5.50;5.50;18.00;99.90;;;;;;5077481;28;10809;-52
2022/04/07 08:54:12;;;;;;;;;6.50;6.50;18.00;99.90;;;;;;5072068;28;10770;-52
2022/04/07 08:56:43;;;;;;;;;5.75;5.00;17.90;99.90;;;;;;5073089;28;12841;-50
2022/04/07 08:59:14;;;;;;;;;5.50;4.25;17.90;99.90;;;;;;5073264;28;12019;-49
2022/04/07 09:01:44;;;;;;;;;7.50;7.25;17.90;99.90;;;;;;5071097;28;10709;-49
2022/04/07 09:04:21;;;;;;;;;10.00;10.00;17.80;99.90;;;;;;5079323;28;10695;-53
2022/04/07 09:06:56;;;;;;;;;10.50;10.50;17.80;99.90;;;;;;5072943;28;11188;-52
2022/04/07 09:09:31;;;;;;;;;9.50;9.50;17.80;99.90;;;;;;5074172;28;11473;-52
2022/04/07 09:12:02;;;;;;;;;11.50;11.50;17.70;99.90;;;;;;5081761;27;11175;-52
2022/04/07 09:14:37;;;;;;;;;12.00;11.50;17.70;99.90;;;;;;5074373;28;11453;-50
2022/04/07 09:17:08;;;;;;;;;12.50;12.50;17.70;99.90;;;;;;5077477;28;11235;-52
2022/04/07 09:19:38;;;;;;;;;11.00;11.00;17.60;99.90;;;;;;5075250;28;11191;-49
2022/04/07 09:22:13;;;;;;;;;9.50;9.50;17.60;99.90;;;;;;5072202;28;11599;-51
2022/04/07 09:24:43;;;;;;;;;11.75;11.75;17.60;99.90;;;;;;5062870;28;11978;-50
2022/04/07 09:27:14;;;;;;;;;13.25;13.25;17.60;99.90;;;;;;5067366;28;11115;-51
2022/04/07 09:29:47;;;;;;;;;16.75;16.75;17.50;99.90;;;;;;5071975;28;11406;-48
2022/04/07 09:32:21;;;;;;;;;18.50;18.50;17.50;99.90;;;;;;5076059;28;12224;-50
2022/04/07 09:35:01;;;;;;;;;11.50;11.25;17.40;99.90;;;;;;5082822;28;11525;-51
2022/04/07 09:37:32;;;;;;;;;6.75;6.75;17.40;99.90;;;;;;5069665;28;11598;-49
2022/04/07 09:40:10;;;;;;;;;7.50;6.50;17.40;99.90;;;;;;5080929;28;11479;-52
2022/04/07 09:42:42;;;;;;;;;4.50;4.50;17.40;99.90;;;;;;5074430;28;11568;-51
2022/04/07 09:45:14;;;;;;;;;3.00;3.00;17.40;99.90;;;;;;5082133;28;11198;-51
2022/04/07 09:47:46;;;;;;;;;4.00;4.00;17.30;99.90;;;;;;5074222;28;10858;-49
2022/04/07 09:50:24;;;;;;;;;4.00;4.00;17.30;99.90;;;;;;5081369;27;10631;-50
2022/04/07 09:53:06;;;;;;;;;4.00;4.00;17.20;99.90;;;;;;5079183;27;10904;-56
2022/04/07 09:55:43;;;;;;;;;3.25;3.25;17.20;99.90;;;;;;5076147;28;10819;-49
2022/04/07 09:58:15;;;;;;;;;4.50;3.25;17.20;99.90;;;;;;5071725;28;11533;-50
2022/04/07 10:00:46;;;;;;;;;4.00;4.00;17.10;99.90;;;;;;5075689;28;10602;-49
2022/04/07 10:03:18;;;;;;;;;4.50;4.50;17.10;99.90;;;;;;5073729;28;10779;-50
2022/04/07 10:05:50;;;;;;;;;3.75;3.75;17.10;99.90;;;;;;5069849;28;11356;-53
2022/04/07 10:08:21;;;;;;;;;3.00;3.00;17.00;99.90;;;;;;5078264;28;11173;-50
2022/04/07 10:10:53;;;;;;;;;6.50;5.25;17.00;99.90;;;;;;5062473;28;10826;-50
2022/04/07 10:13:26;;;;;;;;;6.00;4.75;17.00;99.90;;;;;;5067881;28;10677;-52
2022/04/07 10:15:59;;;;;;;;;8.00;6.00;17.00;99.90;;;;;;5071971;28;10797;-49
2022/04/07 10:18:56;;;;;;;;;5.50;4.75;17.00;99.90;;;;;;5072697;28;10851;-48
2022/04/07 10:21:46;;;;;;;;;6.50;5.50;16.90;99.90;;;;;;5075145;28;10838;-50
2022/04/07 10:24:49;;;;;;;;;5.75;5.75;16.90;99.90;;;;;;5071832;28;10823;-50
2022/04/07 10:27:42;;;;;;;;;6.00;4.75;16.90;99.90;;;;;;5069044;28;10825;-49
2022/04/07 10:30:16;;;;;;;;;3.00;3.00;16.80;99.90;;;;;;5068523;28;10815;-52
2022/04/07 10:32:49;;;;;;;;;3.00;3.00;16.80;99.90;;;;;;5072680;28;10639;-50
2022/04/07 10:35:35;;;;;;;;;3.25;3.25;16.80;99.90;;;;;;5075165;28;10730;-46
2022/04/07 10:38:09;;;;;;;;;3.00;3.00;16.80;99.90;;;;;;5076540;28;10807;-50
2022/04/07 10:40:50;;;;;;;;;3.00;3.00;16.70;99.90;;;;;;5071980;28;10910;-48
2022/04/07 10:43:26;;;;;;;;;3.50;1.00;16.70;99.90;;;;;;5070258;28;10777;-49
2022/04/07 10:46:06;;;;;;;;;3.25;3.25;16.70;99.90;;;;;;5066936;28;10813;-46
2022/04/07 10:48:56;;;;;;;;;3.75;3.75;16.60;99.90;;;;;;5065761;28;10861;-49
2022/04/07 10:51:56;;;;;;;;;3.75;3.75;16.60;99.90;;;;;;5074673;28;11700;-48
2022/04/07 10:54:30;;;;;;;;;2.00;2.00;16.50;99.90;;;;;;5049190;28;10833;-51
2022/04/07 10:57:01;;;;;;;;;6.75;5.75;16.50;99.90;;;;;;5078613;28;10876;-51
2022/04/07 10:59:34;;;;;;;;;4.00;4.00;16.50;99.90;;;;;;5065034;28;11001;-49
2022/04/07 11:02:06;;;;;;;;;3.50;3.50;16.40;99.90;;;;;;5071513;28;11142;-54
2022/04/07 11:04:40;;;;;;;;;4.00;4.00;16.40;99.90;;;;;;5073518;28;10954;-52
2022/04/07 11:07:16;;;;;;;;;4.00;4.00;16.40;99.90;;;;;;5070094;28;10845;-50
2022/04/07 11:09:58;;;;;;;;;4.00;4.00;16.40;99.90;;;;;;5068426;28;10794;-51
2022/04/07 11:12:38;;;;;;;;;2.75;2.75;16.40;99.90;;;;;;5071669;28;10872;-51
2022/04/07 11:15:41;;;;;;;;;5.00;4.00;16.40;99.90;;;;;;5075217;28;10777;-49
2022/04/07 11:18:29;;;;;;;;;3.00;3.00;16.30;99.90;;;;;;5066014;28;10841;-51
2022/04/07 11:21:08;;;;;;;;;4.25;4.25;16.30;99.90;;;;;;5064870;28;10990;-52
2022/04/07 11:23:41;;;;;;;;;3.00;3.00;16.30;99.90;;;;;;5069205;28;10997;-49
2022/04/07 11:26:24;;;;;;;;;3.00;3.00;16.30;99.90;;;;;;5072328;28;10860;-50
2022/04/07 11:29:04;;;;;;;;;4.00;4.00;16.30;99.90;;;;;;5066871;28;11029;-51
2022/04/07 11:31:43;;;;;;;;;3.00;3.00;16.20;99.90;;;;;;5079203;28;11662;-49
2022/04/07 11:34:39;;;;;;;;;4.50;3.00;16.20;99.90;;;;;;5067854;28;10962;-49
2022/04/07 11:37:17;;;;;;;;;3.25;3.25;16.20;99.90;;;;;;5073300;28;11120;-47
2022/04/07 11:39:55;;;;;;;;;3.00;3.00;16.10;99.90;;;;;;5063389;28;11896;-49
2022/04/07 11:42:26;;;;;;;;;3.75;3.75;16.10;99.90;;;;;;5073043;28;11067;-52
2022/04/07 11:44:59;;;;;;;;;5.25;3.50;16.10;99.90;;;;;;5077983;28;10902;-52
2022/04/07 11:47:34;;;;;;;;;3.00;3.00;16.10;99.90;;;;;;5067791;28;11029;-51
2022/04/07 11:50:07;;;;;;;;;2.00;2.00;16.00;99.90;;;;;;5077171;28;11016;-53
2022/04/07 11:52:37;;;;;;;;;4.00;4.00;16.00;99.90;;;;;;5066171;28;10955;-52
2022/04/07 11:55:08;;;;;;;;;3.00;3.00;16.00;99.90;;;;;;5076256;28;11130;-54
2022/04/07 11:57:41;;;;;;;;;3.25;3.25;16.00;99.90;;;;;;5075736;28;11104;-49
2022/04/07 12:00:11;;;;;;;;;2.75;2.75;15.90;99.90;;;;;;5069897;28;10947;-51
2022/04/07 12:02:43;;;;;;;;;3.00;3.00;15.90;99.90;;;;;;5068427;28;10941;-52
2022/04/07 12:05:15;;;;;;;;;2.00;2.00;15.80;99.90;;;;;;5075795;28;10951;-49
2022/04/07 12:07:46;;;;;;;;;3.00;3.00;15.90;99.90;;;;;;5072589;28;11010;-52
2022/04/07 12:10:17;;;;;;;;;3.00;3.00;15.90;99.90;;;;;;5072178;28;10950;-51
2022/04/07 12:12:48;;;;;;;;;1.00;1.00;15.90;99.90;;;;;;5071225;28;10714;-50
2022/04/07 12:15:19;;;;;;;;;2.75;2.00;15.80;99.90;;;;;;5071655;28;11999;-51
2022/04/07 12:17:59;;;;;;;;;1.75;1.75;15.80;99.90;;;;;;5072931;28;10889;-51
2022/04/07 12:20:30;;;;;;;;;3.75;3.75;15.70;99.90;;;;;;5079416;28;11035;-51
2022/04/07 12:23:16;;;;;;;;;3.00;3.00;15.70;99.90;;;;;;5078302;28;10885;-51
2022/04/07 12:25:56;;;;;;;;;3.00;3.00;15.70;99.90;;;;;;5073843;28;11301;-51
2022/04/07 12:28:40;;;;;;;;;3.00;3.00;15.70;99.90;;;;;;5074519;28;11177;-49
2022/04/07 12:31:21;;;;;;;;;3.00;2.50;15.70;99.90;;;;;;5075436;28;11085;-49
2022/04/07 12:33:52;;;;;;;;;2.00;2.00;15.70;99.90;;;;;;5077083;28;11135;-50
2022/04/07 12:36:32;;;;;;;;;2.25;2.25;15.60;99.90;;;;;;5082528;28;10975;-52
2022/04/07 12:39:06;;;;;;;;;5.50;2.25;15.60;99.90;;;;;;5070497;28;11236;-52
2022/04/07 12:41:41;;;;;;;;;3.00;3.00;15.60;99.90;;;;;;5081346;28;11906;-52
2022/04/07 12:44:16;;;;;;;;;2.25;2.25;15.60;99.90;;;;;;5069897;28;11590;-51
2022/04/07 12:46:48;;;;;;;;;1.25;1.25;15.60;99.90;;;;;;5083842;28;11128;-51
2022/04/07 12:49:34;;;;;;;;;2.00;2.00;15.50;99.90;;;;;;5068993;28;10989;-49
2022/04/07 12:52:08;;;;;;;;;2.75;2.75;15.50;99.90;;;;;;5071230;28;11117;-48
2022/04/07 12:54:56;;;;;;;;;2.00;2.00;15.50;99.90;;;;;;5068034;28;11160;-50
2022/04/07 12:57:35;;;;;;;;;2.00;2.00;15.50;99.90;;;;;;5070390;28;11246;-51
2022/04/07 13:00:26;;;;;;;;;5.00;3.00;15.40;99.90;;;;;;5075171;28;11450;-49
2022/04/07 13:03:01;;;;;;;;;2.00;2.00;15.40;99.90;;;;;;5078382;28;11251;-52
2022/04/07 13:05:35;;;;;;;;;3.75;2.50;15.40;99.90;;;;;;5068127;28;11431;-49
2022/04/07 13:08:09;;;;;;;;;4.75;4.75;15.40;99.90;;;;;;5074214;28;11467;-53
2022/04/07 13:10:41;;;;;;;;;3.00;3.00;15.40;99.90;;;;;;5072931;28;11589;-50
2022/04/07 13:13:14;;;;;;;;;2.50;2.50;15.30;99.90;;;;;;5074087;28;11034;-52
2022/04/07 13:15:45;;;;;;;;;4.00;4.00;15.30;99.90;;;;;;5071964;28;11053;-48
2022/04/07 13:18:14;;;;;;;;;4.25;4.25;15.30;99.90;;;;;;5074086;28;11111;-51
2022/04/07 13:20:46;;;;;;;;;3.75;3.75;15.20;99.90;;;;;;5070798;28;12732;-48